Time;durP1;ratioP1;P1;durP2;ratioP2;P2;SDS_P1;SDS_P2;PMS_P1;PMS_P2;Temp;Humidity;BMP_temperature;BMP_pressure;BME280_temperature;BME280_humidity;BME280_pressure;Samples;Min_cycle;Max_cycle;Signal;HPM_P1;HPM_P2
2022/06/18 00:01:35;;;;;;;6.65;4.90;;;;;;;25.53;74.51;100051.91;5104373;28;20036;-75
2022/06/18 00:04:09;;;;;;;8.40;4.90;;;;;;;25.51;74.07;100049.41;5103916;28;20411;-76
2022/06/18 00:06:49;;;;;;;5.15;4.65;;;;;;;25.55;74.11;100050.63;5086953;28;20136;-78
2022/06/18 00:09:14;;;;;;;5.60;4.40;;;;;;;25.58;73.60;100043.97;5099421;28;20446;-77
2022/06/18 00:14:24;;;;;;;6.72;5.03;;;;;;;25.32;75.94;100038.88;5099520;28;20036;-76
2022/06/18 00:16:50;;;;;;;6.47;5.28;;;;;;;25.18;76.60;100036.34;5101142;28;20036;-77
2022/06/18 00:19:15;;;;;;;6.10;4.85;;;;;;;24.99;77.94;100044.66;5104232;28;20103;-77
2022/06/18 00:21:42;;;;;;;6.43;4.65;;;;;;;25.04;77.80;100052.91;5105842;28;20028;-77
2022/06/18 00:24:19;;;;;;;8.00;4.75;;;;;;;25.16;77.50;100051.09;5098897;28;20365;-78
2022/06/18 00:26:46;;;;;;;5.07;4.57;;;;;;;25.24;77.36;100048.09;5099504;28;20028;-77
2022/06/18 00:29:17;;;;;;;6.00;5.40;;;;;;;25.11;77.77;100049.09;5087738;28;20132;-78
2022/06/18 00:31:42;;;;;;;7.68;5.13;;;;;;;24.86;79.73;100051.81;5099107;28;20028;-78
2022/06/18 00:34:08;;;;;;;6.63;5.60;;;;;;;24.68;81.29;100054.47;5106555;28;20039;-78
2022/06/18 00:36:37;;;;;;;5.85;5.18;;;;;;;24.70;81.38;100051.56;5084218;28;20056;-77
2022/06/18 00:39:04;;;;;;;7.50;5.22;;;;;;;24.70;81.53;100047.00;5105570;28;20433;-76
2022/06/18 00:41:32;;;;;;;6.50;5.38;;;;;;;24.69;81.04;100050.75;5102901;28;20028;-76
2022/06/18 00:44:27;;;;;;;5.80;5.30;;;;;;;24.67;80.93;100052.84;5101727;28;20116;-75
2022/06/18 00:47:24;;;;;;;5.50;4.88;;;;;;;24.66;81.36;100055.75;5100805;28;20028;-76
2022/06/18 00:50:05;;;;;;;10.30;4.97;;;;;;;24.70;80.64;100052.41;5102263;28;20447;-76
2022/06/18 00:52:47;;;;;;;8.95;5.45;;;;;;;24.42;82.18;100058.25;5085468;28;20043;-75
2022/06/18 00:55:19;;;;;;;6.63;4.82;;;;;;;24.20;84.38;100056.16;5100260;28;20119;-77
2022/06/18 00:58:05;;;;;;;6.15;5.03;;;;;;;23.95;86.15;100062.31;5104864;28;20428;-77
2022/06/18 01:00:43;;;;;;;6.93;5.47;;;;;;;23.65;87.83;100058.53;5103423;28;20043;-76
2022/06/18 01:03:31;;;;;;;6.22;5.70;;;;;;;23.58;88.91;100063.97;5097668;28;20058;-76
2022/06/18 01:06:19;;;;;;;6.53;5.90;;;;;;;23.49;88.85;100053.66;5086890;28;20043;-78
2022/06/18 01:08:46;;;;;;;6.45;5.82;;;;;;;23.54;89.54;100057.34;5100777;28;20397;-77
2022/06/18 01:11:22;;;;;;;8.15;5.82;;;;;;;23.59;88.65;100057.53;5072275;28;20031;-78
2022/06/18 01:13:49;;;;;;;6.32;5.72;;;;;;;23.58;88.57;100068.53;5085663;28;20048;-79
2022/06/18 01:16:18;;;;;;;6.20;5.60;;;;;;;23.67;88.13;100067.25;5089300;28;20116;-78
2022/06/18 01:18:47;;;;;;;6.23;5.73;;;;;;;23.60;88.51;100061.06;5088576;28;20035;-78
2022/06/18 01:21:30;;;;;;;9.88;6.28;;;;;;;23.47;89.24;100071.88;5103696;28;20028;-77
2022/06/18 01:24:09;;;;;;;8.25;5.82;;;;;;;23.01;93.93;100072.84;5087317;28;20038;-77
2022/06/18 01:26:35;;;;;;;6.70;6.10;;;;;;;23.04;93.72;100075.09;5087234;28;20358;-76
2022/06/18 01:29:01;;;;;;;6.60;5.95;;;;;;;23.12;93.31;100077.56;5103021;28;20462;-76
2022/06/18 01:31:27;;;;;;;10.13;5.53;;;;;;;23.34;92.21;100082.69;5086714;28;20046;-76
2022/06/18 01:33:53;;;;;;;7.22;6.30;;;;;;;23.51;91.62;100081.19;5086761;28;20055;-77
2022/06/18 01:36:22;;;;;;;6.05;5.45;;;;;;;23.65;90.41;100085.47;5085248;28;20131;-77
2022/06/18 01:38:48;;;;;;;6.28;5.65;;;;;;;23.66;89.47;100084.44;5087025;28;20055;-77
2022/06/18 01:41:52;;;;;;;6.95;5.68;;;;;;;23.79;88.94;100081.69;5102456;28;20115;-76
2022/06/18 01:44:50;;;;;;;7.57;6.63;;;;;;;23.92;88.26;100083.47;5051613;28;20112;-78
2022/06/18 01:47:26;;;;;;;6.45;5.75;;;;;;;23.90;88.21;100083.69;5083511;28;20043;-77
2022/06/18 01:50:12;;;;;;;7.28;5.53;;;;;;;23.93;88.16;100087.81;5086631;28;20032;-77
2022/06/18 01:52:46;;;;;;;7.22;5.65;;;;;;;23.97;87.81;100083.66;5080571;28;20036;-77
2022/06/18 01:55:21;;;;;;;7.82;6.03;;;;;;;23.89;88.02;100082.03;5080663;28;20028;-77
2022/06/18 01:58:03;;;;;;;7.13;5.93;;;;;;;23.99;87.79;100079.69;5081854;28;20052;-77
2022/06/18 02:00:30;;;;;;;7.80;5.40;;;;;;;23.98;87.69;100086.13;5083477;28;20175;-76
2022/06/18 02:03:02;;;;;;;6.57;5.90;;;;;;;23.98;87.43;100091.50;5076256;28;20074;-77
2022/06/18 02:05:28;;;;;;;6.47;5.38;;;;;;;23.88;87.78;100085.78;5102361;28;20391;-76
2022/06/18 02:07:56;;;;;;;9.68;5.95;;;;;;;23.92;87.90;100095.06;5103876;28;20365;-76
2022/06/18 02:10:25;;;;;;;10.00;5.63;;;;;;;23.90;87.84;100085.56;5086141;28;20035;-77
2022/06/18 02:12:52;;;;;;;5.88;5.38;;;;;;;23.97;87.67;100091.75;5085223;28;20028;-77
2022/06/18 02:15:40;;;;;;;7.03;6.00;;;;;;;23.89;88.37;100087.44;5105521;28;20023;-76
2022/06/18 02:18:09;;;;;;;6.10;5.38;;;;;;;23.75;89.43;100096.63;5106463;28;20069;-77
2022/06/18 02:20:40;;;;;;;6.60;6.00;;;;;;;23.77;89.45;100094.53;5105551;28;20728;-77
2022/06/18 02:23:06;;;;;;;7.47;5.85;;;;;;;23.68;90.22;100095.81;5104918;28;20114;-77
2022/06/18 02:25:32;;;;;;;6.80;6.20;;;;;;;23.38;91.86;100097.38;5084388;28;20107;-77
2022/06/18 02:28:12;;;;;;;6.40;5.90;;;;;;;23.43;92.42;100093.00;5104368;28;20483;-76
2022/06/18 02:30:38;;;;;;;7.35;6.47;;;;;;;23.52;91.74;100096.31;5086064;28;20036;-76
2022/06/18 02:33:14;;;;;;;6.88;6.25;;;;;;;23.63;91.82;100104.56;5084299;28;20464;-77
2022/06/18 02:35:42;;;;;;;6.45;5.85;;;;;;;23.59;92.32;100097.13;5098151;28;20373;-75
2022/06/18 02:38:17;;;;;;;10.90;6.38;;;;;;;23.42;94.12;100107.50;5097225;28;20084;-77
2022/06/18 02:40:43;;;;;;;8.02;7.18;;;;;;;23.50;93.57;100101.91;5098505;28;20028;-77
2022/06/18 02:43:09;;;;;;;8.93;6.47;;;;;;;23.27;95.19;100099.69;5105518;28;20161;-78
2022/06/18 02:45:36;;;;;;;8.13;6.90;;;;;;;22.98;97.23;100094.78;5100044;28;20111;-77
2022/06/18 02:48:04;;;;;;;11.02;6.90;;;;;;;22.93;97.87;100102.66;5083910;28;20043;-77
2022/06/18 02:50:33;;;;;;;10.13;6.90;;;;;;;22.99;97.56;100107.22;5100142;28;20064;-78
2022/06/18 02:53:02;;;;;;;7.13;6.47;;;;;;;23.04;97.29;100104.72;5083624;28;20060;-78
2022/06/18 02:55:36;;;;;;;8.18;7.00;;;;;;;23.00;97.50;100108.03;5081745;28;21119;-77
2022/06/18 02:58:12;;;;;;;7.10;6.55;;;;;;;23.08;96.83;100100.59;5101611;28;20032;-78
2022/06/18 03:00:41;;;;;;;7.22;6.63;;;;;;;23.17;96.38;100099.31;5079272;28;20479;-77
2022/06/18 03:03:10;;;;;;;8.43;7.05;;;;;;;23.20;96.52;100101.59;5080140;28;20511;-78
2022/06/18 03:05:38;;;;;;;7.70;7.00;;;;;;;23.13;96.62;100098.06;5084094;28;20108;-73
2022/06/18 03:08:04;;;;;;;6.88;6.20;;;;;;;23.17;96.83;100104.69;5099790;28;20032;-77
2022/06/18 03:13:18;;;;;;;7.93;7.10;;;;;;;23.32;96.75;100111.69;5081470;28;20114;-77
2022/06/18 03:15:50;;;;;;;10.10;7.85;;;;;;;23.39;96.38;100107.09;5083449;28;20038;-77
2022/06/18 03:18:19;;;;;;;11.88;9.98;;;;;;;23.40;98.11;100114.13;5080739;28;20412;-77
2022/06/18 03:20:50;;;;;;;12.80;10.07;;;;;;;23.46;98.64;100116.84;5101033;28;20036;-77
2022/06/18 03:23:18;;;;;;;10.10;9.20;;;;;;;23.49;97.60;100121.00;5080221;28;20146;-77
2022/06/18 03:25:45;;;;;;;9.38;8.48;;;;;;;23.47;97.23;100114.97;5083119;28;20479;-77
2022/06/18 03:28:14;;;;;;;8.75;7.78;;;;;;;23.46;96.73;100113.28;5080366;28;20040;-77
2022/06/18 03:30:41;;;;;;;8.20;7.60;;;;;;;23.41;96.98;100113.94;5082720;28;20068;-77
2022/06/18 03:33:09;;;;;;;9.48;8.55;;;;;;;23.44;97.76;100113.53;5079888;28;20036;-76
2022/06/18 03:35:36;;;;;;;11.90;10.63;;;;;;;23.44;98.17;100112.69;5100281;28;20032;-77
2022/06/18 03:38:01;;;;;;;11.80;9.73;;;;;;;23.44;98.26;100115.41;5080216;28;20151;-77
2022/06/18 03:40:28;;;;;;;11.25;10.07;;;;;;;23.46;98.76;100118.69;5081280;28;20403;-77
2022/06/18 03:42:54;;;;;;;11.85;10.70;;;;;;;23.46;98.85;100114.16;5082935;28;20031;-76
2022/06/18 03:45:20;;;;;;;14.88;10.98;;;;;;;23.47;99.17;100121.19;5080867;28;20051;-77
2022/06/18 03:47:47;;;;;;;11.55;9.80;;;;;;;23.41;99.81;100123.88;5098101;28;20032;-77
2022/06/18 03:50:17;;;;;;;13.48;10.43;;;;;;;23.29;100.00;100129.09;5084137;28;20032;-75
2022/06/18 03:52:44;;;;;;;15.97;11.70;;;;;;;23.27;100.00;100133.84;5083021;28;20035;-76
2022/06/18 03:55:12;;;;;;;14.88;12.10;;;;;;;23.24;100.00;100127.03;5105040;28;20352;-76
2022/06/18 03:57:38;;;;;;;13.77;12.38;;;;;;;23.27;100.00;100137.38;5083206;28;20039;-77
2022/06/18 04:00:15;;;;;;;12.02;11.02;;;;;;;23.34;100.00;100136.53;5083204;28;20046;-76
2022/06/18 04:02:42;;;;;;;12.30;10.60;;;;;;;23.26;100.00;100138.44;5101591;28;20369;-77
2022/06/18 04:05:10;;;;;;;12.65;11.48;;;;;;;23.11;100.00;100143.22;5079152;28;20506;-76
2022/06/18 04:07:37;;;;;;;10.48;9.38;;;;;;;23.07;100.00;100146.53;5081165;28;20055;-76
2022/06/18 04:10:20;;;;;;;9.90;8.90;;;;;;;22.96;100.00;100156.09;5077587;28;20033;-76
2022/06/18 04:12:47;;;;;;;11.27;7.72;;;;;;;22.89;100.00;100159.81;5077758;28;20477;-74
2022/06/18 04:15:39;;;;;;;11.10;8.40;;;;;;;22.95;99.49;100165.19;5074230;28;20078;-77
2022/06/18 04:18:12;;;;;;;9.60;8.25;;;;;;;23.05;98.90;100170.97;5080250;28;20040;-76
2022/06/18 04:20:38;;;;;;;10.18;8.15;;;;;;;22.96;99.97;100182.16;5078703;28;20123;-76
2022/06/18 04:23:09;;;;;;;11.45;9.80;;;;;;;22.78;100.00;100185.47;5083324;28;20425;-77
2022/06/18 04:25:38;;;;;;;;;;;;;;;22.52;100.00;100185.41;5080086;28;20073;-77
2022/06/18 04:28:04;;;;;;;11.50;10.43;;;;;;;22.34;100.00;100183.31;5082137;28;19920;-77
2022/06/18 04:30:31;;;;;;;12.35;11.25;;;;;;;22.26;100.00;100188.91;5080707;28;20032;-76
2022/06/18 04:33:06;;;;;;;11.30;10.30;;;;;;;22.31;100.00;100187.25;5083252;28;20024;-77
2022/06/18 04:35:36;;;;;;;12.05;10.95;;;;;;;22.30;100.00;100196.34;5079783;28;20033;-77
2022/06/18 04:38:05;;;;;;;15.02;11.18;;;;;;;22.39;100.00;100189.72;5083945;28;20385;-77
2022/06/18 04:40:39;;;;;;;14.25;12.77;;;;;;;22.41;100.00;100195.75;5080983;28;20396;-78
2022/06/18 04:43:11;;;;;;;13.95;12.60;;;;;;;22.40;100.00;100196.78;5079778;28;20037;-77
2022/06/18 04:45:45;;;;;;;12.48;11.20;;;;;;;22.41;100.00;100195.75;5076894;28;20496;-76
2022/06/18 04:48:16;;;;;;;15.60;10.82;;;;;;;22.61;100.00;100200.34;5082209;28;20503;-77
2022/06/18 04:50:42;;;;;;;13.15;11.82;;;;;;;22.74;100.00;100200.34;5079238;28;20036;-77
2022/06/18 04:53:10;;;;;;;17.05;15.35;;;;;;;22.73;100.00;100199.56;5083926;28;20159;-77
2022/06/18 04:55:39;;;;;;;19.90;15.25;;;;;;;22.78;100.00;100196.25;5075342;28;20036;-78
2022/06/18 04:58:06;;;;;;;14.60;13.23;;;;;;;22.94;100.00;100208.44;5083993;28;20043;-77
2022/06/18 05:00:33;;;;;;;15.27;13.77;;;;;;;22.92;100.00;100203.25;5079623;28;20396;-78
2022/06/18 05:03:18;;;;;;;16.83;13.98;;;;;;;22.91;100.00;100207.03;5081113;28;20071;-78
2022/06/18 05:05:58;;;;;;;18.40;14.52;;;;;;;22.91;100.00;100200.81;5080663;28;20182;-78
2022/06/18 05:08:42;;;;;;;14.90;13.15;;;;;;;22.90;100.00;100197.28;5076907;28;20534;-78
2022/06/18 05:11:34;;;;;;;14.85;13.13;;;;;;;23.03;100.00;100197.25;5081636;28;20511;-77
2022/06/18 05:14:11;;;;;;;17.45;13.07;;;;;;;23.16;100.00;100204.50;5079470;28;20039;-77
2022/06/18 05:16:43;;;;;;;13.25;12.15;;;;;;;23.30;100.00;100199.94;5078637;28;20486;-77
2022/06/18 05:19:26;;;;;;;13.50;12.30;;;;;;;23.46;100.00;100191.41;5076559;28;20032;-78
2022/06/18 05:21:55;;;;;;;12.90;11.80;;;;;;;23.59;100.00;100188.72;5080658;28;20048;-76
2022/06/18 05:24:21;;;;;;;13.07;11.88;;;;;;;23.70;100.00;100190.75;5081447;28;20036;-77
2022/06/18 05:26:51;;;;;;;12.85;11.52;;;;;;;23.72;99.54;100187.84;5079680;28;20024;-77
2022/06/18 05:29:18;;;;;;;11.50;10.20;;;;;;;23.74;97.92;100196.56;5081998;28;20055;-77
2022/06/18 05:31:44;;;;;;;10.73;9.65;;;;;;;23.83;94.92;100195.28;5080490;28;20088;-78
2022/06/18 05:34:11;;;;;;;13.48;9.40;;;;;;;23.93;93.64;100195.63;5082817;28;20333;-76
2022/06/18 05:36:37;;;;;;;10.02;7.85;;;;;;;24.05;93.20;100205.53;5078304;28;20109;-77
2022/06/18 05:39:05;;;;;;;11.52;8.15;;;;;;;24.16;91.14;100195.09;5080772;28;20036;-78
2022/06/18 05:41:31;;;;;;;8.50;7.68;;;;;;;24.23;89.78;100195.94;5080419;28;20123;-77
2022/06/18 05:43:57;;;;;;;7.95;7.15;;;;;;;24.34;88.85;100203.34;5081880;28;20099;-77
2022/06/18 05:46:23;;;;;;;7.00;6.32;;;;;;;24.41;87.13;100206.84;5081035;28;20421;-77
2022/06/18 05:48:49;;;;;;;8.32;6.75;;;;;;;24.53;86.45;100198.88;5062760;28;20033;-78
2022/06/18 05:51:16;;;;;;;7.63;5.88;;;;;;;24.63;84.98;100202.75;5080965;28;20032;-79
2022/06/18 05:53:43;;;;;;;7.32;6.50;;;;;;;24.66;82.52;100207.72;5081872;28;20034;-77
2022/06/18 05:56:27;;;;;;;8.55;6.43;;;;;;;24.74;81.98;100206.63;5080070;28;20093;-78
2022/06/18 05:59:02;;;;;;;10.30;6.43;;;;;;;24.84;81.60;100217.75;5080869;28;20510;-78
2022/06/18 06:01:31;;;;;;;8.90;8.00;;;;;;;24.81;86.31;100221.72;5081830;28;20041;-78
2022/06/18 06:04:00;;;;;;;8.68;7.78;;;;;;;24.82;87.45;100223.38;5079485;28;20089;-78
2022/06/18 06:06:27;;;;;;;12.05;10.90;;;;;;;24.87;90.12;100225.41;5079012;28;20481;-77
2022/06/18 06:08:53;;;;;;;11.43;10.38;;;;;;;24.79;91.53;100221.13;5081750;28;20383;-78
2022/06/18 06:11:32;;;;;;;14.15;12.48;;;;;;;24.78;91.44;100216.75;5080213;28;20028;-78
2022/06/18 06:14:03;;;;;;;10.73;9.57;;;;;;;24.74;91.02;100215.53;5078953;28;20036;-78
2022/06/18 06:16:30;;;;;;;10.20;8.80;;;;;;;24.76;89.62;100213.44;5080982;28;20123;-77
2022/06/18 06:19:00;;;;;;;8.90;7.97;;;;;;;24.84;87.40;100225.84;5081981;28;20079;-77
2022/06/18 06:21:26;;;;;;;10.77;6.07;;;;;;;24.91;83.02;100223.13;5080155;28;20449;-78
2022/06/18 06:23:52;;;;;;;6.72;5.38;;;;;;;24.98;80.33;100221.19;5078762;28;20044;-78
2022/06/18 06:26:24;;;;;;;6.63;4.78;;;;;;;25.09;79.56;100223.19;5082352;28;20031;-78
2022/06/18 06:28:50;;;;;;;6.85;5.85;;;;;;;25.16;78.01;100223.94;5078065;28;20110;-78
2022/06/18 06:31:18;;;;;;;12.40;5.10;;;;;;;25.25;78.15;100228.03;5081384;28;20020;-78
2022/06/18 06:33:44;;;;;;;6.38;4.72;;;;;;;25.35;77.63;100220.25;5078533;28;20400;-77
2022/06/18 06:36:11;;;;;;;6.20;5.18;;;;;;;25.44;75.92;100227.03;5082232;28;20032;-76
2022/06/18 06:38:38;;;;;;;5.40;4.38;;;;;;;25.52;74.96;100232.13;5078897;28;20054;-77
2022/06/18 06:41:18;;;;;;;6.30;4.70;;;;;;;25.63;74.87;100238.69;5081544;28;20040;-77
2022/06/18 06:43:43;;;;;;;6.95;4.88;;;;;;;25.71;74.18;100232.16;5075069;28;20060;-77
2022/06/18 06:46:12;;;;;;;8.75;6.13;;;;;;;25.63;72.57;100236.81;5082417;28;20067;-77
2022/06/18 06:48:38;;;;;;;5.88;5.28;;;;;;;25.69;73.54;100238.63;5077432;28;20366;-78
2022/06/18 06:51:12;;;;;;;10.40;5.63;;;;;;;25.78;73.85;100238.34;5081752;28;20081;-77
2022/06/18 06:53:37;;;;;;;6.45;5.03;;;;;;;25.87;73.43;100239.66;5078206;28;20380;-78
2022/06/18 06:58:57;;;;;;;7.78;4.60;;;;;;;25.98;71.60;100238.91;5079431;28;20451;-79
2022/06/18 07:01:23;;;;;;;7.47;4.93;;;;;;;26.01;71.41;100228.50;5081414;28;20392;-78
2022/06/18 07:03:48;;;;;;;6.28;5.78;;;;;;;26.06;71.27;100230.50;5080217;28;20039;-78
2022/06/18 07:06:16;;;;;;;11.52;5.93;;;;;;;26.10;70.79;100227.09;5091257;28;20096;-77
2022/06/18 07:08:43;;;;;;;8.23;5.53;;;;;;;26.14;71.12;100222.09;5102662;28;20435;-77
2022/06/18 07:11:09;;;;;;;5.93;4.85;;;;;;;26.18;71.72;100225.97;5098482;28;20787;-72
2022/06/18 07:13:35;;;;;;;6.53;5.40;;;;;;;26.23;71.48;100230.69;5097941;28;20040;-70
2022/06/18 07:16:00;;;;;;;9.35;5.55;;;;;;;26.25;71.47;100229.47;5096565;28;20032;-71
2022/06/18 07:18:31;;;;;;;5.68;5.18;;;;;;;26.29;70.97;100233.34;5081572;28;20032;-71
2022/06/18 07:21:01;;;;;;;5.88;5.13;;;;;;;26.33;71.35;100231.81;5100471;28;20038;-72
2022/06/18 07:23:27;;;;;;;9.35;5.60;;;;;;;26.37;71.02;100233.03;5101016;28;20394;-73
2022/06/18 07:25:53;;;;;;;9.48;6.63;;;;;;;26.38;71.27;100234.69;5102512;28;20028;-75
2022/06/18 07:28:19;;;;;;;6.40;5.60;;;;;;;26.40;71.51;100243.41;5104728;28;20040;-73
2022/06/18 07:30:48;;;;;;;6.20;5.60;;;;;;;26.41;71.56;100242.34;5106344;28;20061;-75
2022/06/18 07:33:17;;;;;;;10.77;6.20;;;;;;;26.42;71.18;100235.88;5103444;28;20039;-73
2022/06/18 07:35:43;;;;;;;8.48;5.97;;;;;;;26.41;70.46;100239.63;5104073;28;20028;-71
2022/06/18 07:38:09;;;;;;;6.32;5.70;;;;;;;26.39;71.10;100247.16;5103779;28;20411;-71
2022/06/18 07:40:46;;;;;;;8.13;6.13;;;;;;;26.41;70.97;100238.81;5103597;28;20028;-71
2022/06/18 07:43:19;;;;;;;6.50;5.90;;;;;;;26.42;70.68;100246.72;4744152;28;9999887;-75
2022/06/18 07:45:46;;;;;;;6.85;5.80;;;;;;;26.57;70.44;100245.47;5100308;28;20036;-77
2022/06/18 07:48:14;;;;;;;10.88;6.82;;;;;;;26.65;69.33;100245.13;5103241;28;20074;-77
2022/06/18 07:50:46;;;;;;;8.95;5.95;;;;;;;26.71;69.84;100238.78;5081927;28;20396;-75
2022/06/18 07:53:19;;;;;;;8.70;7.45;;;;;;;26.82;68.84;100238.00;5101005;28;20032;-75
2022/06/18 07:55:45;;;;;;;6.82;5.50;;;;;;;26.81;68.38;100236.34;5102260;28;20032;-77
2022/06/18 07:58:10;;;;;;;6.63;5.65;;;;;;;26.83;68.52;100226.94;5100926;28;20036;-77
2022/06/18 08:00:39;;;;;;;7.43;5.18;;;;;;;26.94;68.58;100238.06;5103920;28;20103;-77
2022/06/18 08:03:07;;;;;;;8.63;5.93;;;;;;;27.09;67.06;100241.97;5100643;28;20042;-79
2022/06/18 08:05:33;;;;;;;7.72;5.63;;;;;;;27.19;67.08;100241.38;5099549;28;20109;-76
2022/06/18 08:07:59;;;;;;;7.90;5.78;;;;;;;27.26;66.16;100248.34;5098937;28;20067;-75
2022/06/18 08:10:25;;;;;;;11.43;5.30;;;;;;;27.38;65.98;100242.13;5082976;28;20165;-75
2022/06/18 08:12:51;;;;;;;6.50;5.25;;;;;;;27.48;65.70;100245.06;5101099;28;20038;-77
2022/06/18 08:15:18;;;;;;;7.88;4.93;;;;;;;27.54;64.84;100238.72;5100493;28;20035;-76
2022/06/18 08:17:44;;;;;;;7.32;4.90;;;;;;;27.52;64.58;100235.41;5099628;28;20063;-77
2022/06/18 08:20:11;;;;;;;7.72;5.40;;;;;;;27.52;64.61;100236.22;5097629;28;20273;-76
2022/06/18 08:22:41;;;;;;;5.93;5.40;;;;;;;27.54;64.27;100228.69;5092386;28;20396;-77
2022/06/18 08:25:08;;;;;;;8.23;5.50;;;;;;;27.59;64.73;100236.09;5091211;28;20042;-76
2022/06/18 08:27:35;;;;;;;6.68;5.22;;;;;;;27.64;64.30;100233.50;5100056;28;20080;-76
2022/06/18 08:30:01;;;;;;;7.05;5.80;;;;;;;27.64;63.87;100233.50;5099223;28;20387;-76
2022/06/18 08:32:27;;;;;;;9.68;5.80;;;;;;;27.65;64.10;100229.75;5066921;28;20410;-76
2022/06/18 08:34:52;;;;;;;8.57;5.35;;;;;;;27.66;63.56;100228.69;5103493;28;20028;-77
2022/06/18 08:37:18;;;;;;;5.95;5.35;;;;;;;27.67;63.58;100223.03;5102165;28;20030;-78
2022/06/18 08:39:44;;;;;;;6.60;4.97;;;;;;;27.73;63.76;100231.28;5095262;28;20446;-78
2022/06/18 08:42:28;;;;;;;5.63;4.55;;;;;;;27.82;63.75;100224.41;5074834;28;20040;-78
2022/06/18 08:45:15;;;;;;;6.13;4.72;;;;;;;27.85;64.00;100234.78;5075627;28;20040;-78
2022/06/18 08:48:08;;;;;;;7.45;5.18;;;;;;;27.88;63.07;100237.84;5098146;28;20428;-76
2022/06/18 08:50:48;;;;;;;8.90;5.95;;;;;;;27.88;62.97;100237.00;5103577;28;20139;-76
2022/06/18 08:53:36;;;;;;;8.35;6.45;;;;;;;27.86;63.30;100231.84;5093516;28;20036;-75
2022/06/18 08:56:08;;;;;;;6.03;5.30;;;;;;;27.96;63.04;100229.34;5095792;28;20070;-75
2022/06/18 08:58:50;;;;;;;8.68;6.82;;;;;;;27.97;62.82;100230.16;5079430;28;20044;-77
2022/06/18 09:01:25;;;;;;;8.13;5.55;;;;;;;27.97;62.97;100233.69;5096692;28;20039;-75
2022/06/18 09:04:37;;;;;;;9.50;5.85;;;;;;;28.05;63.09;100229.75;5074865;28;20054;-73
2022/06/18 09:07:22;;;;;;;7.03;6.35;;;;;;;28.21;62.49;100233.66;5095448;28;20048;-75
2022/06/18 09:10:02;;;;;;;7.20;5.82;;;;;;;28.28;61.75;100239.75;5093203;28;20040;-75
2022/06/18 09:12:46;;;;;;;7.15;5.55;;;;;;;28.33;61.31;100239.88;5095572;28;20042;-75
2022/06/18 09:15:20;;;;;;;9.63;5.95;;;;;;;28.32;60.85;100224.66;5082704;28;20383;-82
2022/06/18 09:17:58;;;;;;;6.10;4.60;;;;;;;28.34;60.71;100227.91;5098756;28;20028;-77
2022/06/18 09:20:35;;;;;;;8.23;5.75;;;;;;;28.41;61.57;100217.75;5099193;28;20036;-75
2022/06/18 09:23:08;;;;;;;8.60;5.45;;;;;;;28.56;60.95;100226.19;5097705;28;20131;-75
2022/06/18 09:25:40;;;;;;;6.80;5.38;;;;;;;28.65;60.58;100224.72;5099118;28;20028;-76
2022/06/18 09:28:12;;;;;;;8.90;6.15;;;;;;;28.68;60.50;100224.25;5105259;28;20053;-75
2022/06/18 09:30:45;;;;;;;6.78;6.00;;;;;;;28.70;60.14;100221.25;5102319;28;20036;-76
2022/06/18 09:33:27;;;;;;;7.40;6.22;;;;;;;28.72;60.34;100219.94;5095250;28;20392;-75
2022/06/18 09:35:55;;;;;;;6.78;5.82;;;;;;;28.78;60.42;100216.28;5100451;28;20044;-77
2022/06/18 09:38:27;;;;;;;9.18;5.65;;;;;;;28.84;60.56;100211.75;5103390;28;20020;-77
2022/06/18 09:40:59;;;;;;;8.07;6.88;;;;;;;28.91;59.62;100209.72;5105801;28;20114;-74
2022/06/18 09:43:44;;;;;;;9.00;6.80;;;;;;;28.89;59.77;100220.81;5084743;28;20524;-77
2022/06/18 09:46:18;;;;;;;6.07;5.22;;;;;;;28.84;60.08;100201.72;5099947;28;20379;-78
2022/06/18 09:48:44;;;;;;;10.65;6.25;;;;;;;28.89;60.61;100204.53;5097662;28;20047;-80
2022/06/18 09:51:38;;;;;;;8.73;5.97;;;;;;;28.85;60.69;100202.53;5087098;28;20484;-77
2022/06/18 09:54:07;;;;;;;6.88;6.22;;;;;;;28.75;60.38;100210.50;5102986;28;20113;-78
2022/06/18 09:56:46;;;;;;;8.27;6.47;;;;;;;28.65;60.73;100197.56;5102670;28;20102;-78
2022/06/18 09:59:17;;;;;;;7.13;6.40;;;;;;;28.63;61.59;100201.59;5097781;28;20028;-80
2022/06/18 10:01:46;;;;;;;9.35;6.30;;;;;;;28.61;62.67;100199.13;5079160;28;20282;-78
2022/06/18 10:07:00;;;;;;;6.90;6.20;;;;;;;28.71;61.90;100204.72;5101613;28;20055;-78
2022/06/18 10:09:43;;;;;;;7.35;6.70;;;;;;;28.68;61.84;100191.66;5102230;28;20395;-79
2022/06/18 10:12:25;;;;;;;9.15;7.13;;;;;;;28.65;62.87;100180.44;5097299;28;20023;-78
2022/06/18 10:14:56;;;;;;;8.65;7.85;;;;;;;28.63;62.58;100183.38;5081610;28;20514;-78
2022/06/18 10:17:57;;;;;;;11.27;7.15;;;;;;;28.60;62.96;100186.59;5085134;28;20033;-79
2022/06/18 10:20:47;;;;;;;10.77;5.72;;;;;;;28.65;63.81;100175.84;5098950;28;20024;-78
2022/06/18 10:23:25;;;;;;;6.57;5.80;;;;;;;28.77;63.81;100176.59;5096157;28;20030;-79
2022/06/18 10:26:07;;;;;;;7.32;6.63;;;;;;;28.89;63.63;100188.22;5098637;28;20039;-78
2022/06/18 10:28:57;;;;;;;10.77;7.20;;;;;;;28.90;63.30;100179.00;5100703;28;20035;-78
2022/06/18 10:31:32;;;;;;;8.18;6.35;;;;;;;28.92;63.87;100170.63;5098829;28;20032;-78
2022/06/18 10:34:36;;;;;;;7.97;6.00;;;;;;;28.98;63.87;100163.38;5101366;28;20058;-79
2022/06/18 10:51:28;;;;;;;6.88;6.10;;;;;;;29.26;64.20;100146.94;6270798;22;2005306;-80
2022/06/18 10:53:57;;;;;;;6.72;6.13;;;;;;;29.32;63.97;100132.34;6293501;22;20011;-79
2022/06/18 10:56:29;;;;;;;7.68;6.30;;;;;;;29.35;64.47;100133.75;6319530;22;20011;-81
2022/06/18 10:58:57;;;;;;;11.18;6.70;;;;;;;29.48;65.12;100136.09;6315202;22;20488;-82
2022/06/18 11:01:44;;;;;;;7.40;6.30;;;;;;;29.51;64.92;100130.97;6315252;22;20019;-81
2022/06/18 11:04:28;;;;;;;8.10;6.35;;;;;;;29.59;64.33;100133.25;6288862;22;20094;-80
2022/06/18 11:07:06;;;;;;;8.02;6.53;;;;;;;29.68;63.46;100126.31;6316780;22;20018;-82
2022/06/18 11:09:36;;;;;;;7.18;6.45;;;;;;;29.77;63.72;100123.13;6316400;22;20011;-81
2022/06/18 11:12:27;;;;;;;6.90;6.10;;;;;;;29.85;63.65;100125.41;6315780;22;20015;-81
2022/06/18 11:14:53;;;;;;;7.53;6.30;;;;;;;29.93;63.22;100123.06;6315520;22;20308;-81
2022/06/18 11:17:33;;;;;;;6.85;6.15;;;;;;;30.06;63.16;100127.28;6315532;22;20064;-81
2022/06/18 11:20:19;;;;;;;;;;;;;;;30.11;62.57;100119.16;6315460;22;20025;-81
2022/06/18 11:22:49;;;;;;;;;;;;;;;30.13;62.89;100111.56;6315939;22;20187;-80
2022/06/18 11:25:26;;;;;;;;;;;;;;;30.11;62.68;100114.53;6316129;22;19918;-81
2022/06/18 11:27:53;;;;;;;;;;;;;;;30.15;62.56;100106.72;6316212;22;19963;-81
2022/06/18 11:30:24;;;;;;;;;;;;;;;30.22;62.08;100106.50;6320091;22;19911;-81
2022/06/18 11:32:50;;;;;;;;;;;;;;;30.27;62.01;100118.25;6337954;22;20248;-81
2022/06/18 11:35:22;;;;;;;;;;;;;;;30.32;61.12;100103.88;6317472;22;19911;-81
2022/06/18 11:38:03;;;;;;;9.23;6.18;;;;;;;30.40;61.03;100100.66;6315188;22;20315;-81
2022/06/18 11:40:29;;;;;;;9.23;6.37;;;;;;;30.42;60.79;100103.94;6315431;22;20018;-81
2022/06/18 11:43:20;;;;;;;10.45;6.47;;;;;;;30.48;60.60;100092.88;6314713;22;20003;-82
2022/06/18 11:45:53;;;;;;;12.90;7.40;;;;;;;30.52;59.62;100093.97;6313579;22;20019;-81
2022/06/18 11:48:34;;;;;;;7.32;6.72;;;;;;;30.57;58.81;100085.06;6314972;22;20081;-82
2022/06/18 11:51:06;;;;;;;7.78;6.75;;;;;;;30.65;57.67;100090.00;6310982;22;20007;-80
2022/06/18 11:53:45;;;;;;;8.07;7.25;;;;;;;30.65;58.75;100078.28;6307901;22;20111;-81
2022/06/18 11:56:38;;;;;;;7.93;7.10;;;;;;;30.59;59.52;100077.41;6308384;22;20030;-81
2022/06/18 11:59:16;;;;;;;10.20;6.53;;;;;;;30.65;59.15;100076.38;6315495;22;20018;-80
2022/06/18 12:01:50;;;;;;;;;;;;;;;30.79;58.92;100087.66;6319628;22;20201;-80
2022/06/18 12:04:15;;;;;;;;;;;;;;;30.86;58.81;100071.91;6282586;22;19915;-80
2022/06/18 12:06:44;;;;;;;;;;;;;;;30.99;58.27;100076.84;6308549;22;19953;-80
2022/06/18 12:09:10;;;;;;;;;;;;;;;31.10;57.66;100072.34;6308057;22;19998;-80
2022/06/18 12:11:41;;;;;;;;;;;;;;;31.19;57.50;100066.09;6307970;22;19910;-80
2022/06/18 12:14:22;;;;;;;6.47;5.97;;;;;;;31.40;55.63;100061.53;6307341;22;19917;-81